createdAt,value
2019-01-24T00:00:49.589Z,23.70
2019-01-24T00:02:54.030Z,17.20
2019-01-24T00:04:58.397Z,21.40
2019-01-24T00:07:02.781Z,15.33
2019-01-24T00:09:08.906Z,33.07
2019-01-24T00:11:13.331Z,11.13
2019-01-24T00:13:17.775Z,12.33
2019-01-24T00:15:22.235Z,20.93
2019-01-24T00:17:26.665Z,16.33
2019-01-24T00:19:31.089Z,14.00
2019-01-24T00:21:35.557Z,19.27
2019-01-24T00:23:39.942Z,20.70
2019-01-24T00:25:45.369Z,16.80
2019-01-24T00:27:48.741Z,33.37
2019-01-24T00:29:53.108Z,15.27
2019-01-24T00:31:57.524Z,14.13
2019-01-24T00:34:02.017Z,16.57
2019-01-24T00:36:06.498Z,23.93
2019-01-24T00:38:10.923Z,18.80
2019-01-24T00:40:17.625Z,25.60
2019-01-24T00:42:22.810Z,21.30
2019-01-24T00:44:27.229Z,26.73
2019-01-24T00:46:31.626Z,22.13
2019-01-24T00:48:36.048Z,17.60
2019-01-24T00:50:40.396Z,26.20
2019-01-24T00:52:44.940Z,24.73
2019-01-24T00:54:49.305Z,20.70
2019-01-24T00:56:53.683Z,18.37
2019-01-24T00:58:58.569Z,22.70
2019-01-24T01:01:03.061Z,18.03
2019-01-24T01:03:08.481Z,18.77
2019-01-24T01:05:13.386Z,17.53
2019-01-24T01:07:17.813Z,15.50
2019-01-24T01:09:22.255Z,26.47
2019-01-24T01:11:26.635Z,19.73
2019-01-24T01:13:31.074Z,19.83
2019-01-24T01:15:35.469Z,26.60
2019-01-24T01:17:39.858Z,18.67
2019-01-24T01:19:44.231Z,14.70
2019-01-24T01:21:48.638Z,21.40
2019-01-24T01:23:53.009Z,29.87
2019-01-24T01:25:57.478Z,17.50
2019-01-24T01:28:01.896Z,16.23
2019-01-24T01:30:08.518Z,18.00
2019-01-24T01:32:12.983Z,15.37
2019-01-24T01:34:17.375Z,31.00
2019-01-24T01:36:21.766Z,18.50
2019-01-24T01:38:26.240Z,17.47
2019-01-24T01:40:30.624Z,23.03
2019-01-24T01:42:35.068Z,16.73
2019-01-24T01:44:39.397Z,23.27
2019-01-24T01:46:43.806Z,16.73
2019-01-24T01:48:48.178Z,30.57
2019-01-24T01:50:52.596Z,21.60
2019-01-24T01:52:57.048Z,21.37
2019-01-24T01:55:01.462Z,22.97
2019-01-24T01:57:05.913Z,15.30
2019-01-24T01:59:11.031Z,29.37
2019-01-24T02:01:15.422Z,21.57
2019-01-24T02:03:19.793Z,16.87
2019-01-24T02:05:24.249Z,23.30
2019-01-24T02:07:28.717Z,18.37
2019-01-24T02:09:33.488Z,13.33
2019-01-24T02:11:37.900Z,27.53
2019-01-24T02:13:42.263Z,18.60
2019-01-24T02:15:46.848Z,14.33
2019-01-24T02:17:51.311Z,12.50
2019-01-24T02:19:55.669Z,20.00
2019-01-24T02:22:00.244Z,26.00
2019-01-24T02:24:05.697Z,22.23
2019-01-24T02:26:10.090Z,26.13
2019-01-24T02:28:14.539Z,28.53
2019-01-24T02:30:22.300Z,16.63
2019-01-24T02:32:26.880Z,20.17
2019-01-24T02:34:31.261Z,23.33
2019-01-24T02:36:35.659Z,16.33
2019-01-24T02:38:41.207Z,23.37
2019-01-24T02:40:45.629Z,21.10
2019-01-24T02:42:53.329Z,24.43
2019-01-24T02:44:57.725Z,20.00
2019-01-24T02:47:02.167Z,18.37
2019-01-24T02:49:06.541Z,12.33
2019-01-24T02:51:10.926Z,17.27
2019-01-24T02:53:15.318Z,13.93
2019-01-24T02:55:19.998Z,11.13
2019-01-24T02:57:24.441Z,15.03
2019-01-24T02:59:28.879Z,25.57
2019-01-24T03:01:33.318Z,22.73
2019-01-24T03:03:37.738Z,12.73
2019-01-24T03:05:42.142Z,16.33
2019-01-24T03:07:46.548Z,10.67
2019-01-24T03:09:50.978Z,21.43
2019-01-24T03:11:55.666Z,13.50
2019-01-24T03:14:00.070Z,20.03
2019-01-24T03:16:04.523Z,25.13
2019-01-24T03:18:09.023Z,40.23
2019-01-24T03:20:13.539Z,20.43
2019-01-24T03:22:17.922Z,26.87
2019-01-24T03:24:22.307Z,29.73
2019-01-24T03:26:26.700Z,18.77
2019-01-24T03:28:31.147Z,25.67
2019-01-24T03:30:35.558Z,19.27
2019-01-24T03:32:39.913Z,16.53
2019-01-24T03:34:44.391Z,30.00
2019-01-24T03:36:48.810Z,37.63
2019-01-24T03:38:53.213Z,27.43
2019-01-24T03:40:57.649Z,20.60
2019-01-24T03:43:02.062Z,22.23
2019-01-24T03:45:08.492Z,22.60
2019-01-24T03:47:12.887Z,22.33
2019-01-24T03:49:17.325Z,15.80
2019-01-24T03:51:21.744Z,25.20
2019-01-24T03:53:26.110Z,22.53
2019-01-24T03:55:30.614Z,22.97
2019-01-24T03:57:35.073Z,31.53
2019-01-24T03:59:39.467Z,20.43
2019-01-24T04:01:43.954Z,21.00
2019-01-24T04:03:48.353Z,19.60
2019-01-24T04:05:52.740Z,27.57
2019-01-24T04:07:57.156Z,25.53
2019-01-24T04:10:01.546Z,23.40
2019-01-24T04:12:06.043Z,24.83
2019-01-24T04:14:10.487Z,29.70
2019-01-24T04:16:14.932Z,19.63
2019-01-24T04:18:19.405Z,27.43
2019-01-24T04:20:23.837Z,37.83
2019-01-24T04:22:28.263Z,47.47
2019-01-24T04:24:32.774Z,25.63
2019-01-24T04:26:37.201Z,30.43
2019-01-24T04:28:41.594Z,27.00
2019-01-24T04:30:46.015Z,22.60
2019-01-24T04:32:50.522Z,30.93
2019-01-24T04:34:55.078Z,32.00
2019-01-24T04:36:59.494Z,31.27
2019-01-24T04:39:06.620Z,34.47
2019-01-24T04:41:10.986Z,41.53
2019-01-24T04:43:15.333Z,28.13
2019-01-24T04:45:19.837Z,35.80
2019-01-24T04:47:24.209Z,28.87
2019-01-24T04:49:28.696Z,31.57
2019-01-24T04:51:33.111Z,28.93
2019-01-24T04:53:37.543Z,35.33
2019-01-24T04:55:41.938Z,33.87
2019-01-24T04:57:46.409Z,34.53
2019-01-24T04:59:50.801Z,23.73
2019-01-24T05:01:55.217Z,32.87
2019-01-24T05:03:59.649Z,20.73
2019-01-24T05:06:04.152Z,29.20
2019-01-24T05:08:08.577Z,18.27
2019-01-24T05:10:13.040Z,30.07
2019-01-24T05:12:18.493Z,28.53
2019-01-24T05:14:22.847Z,21.77
2019-01-24T05:16:27.294Z,31.23
2019-01-24T05:18:31.676Z,37.47
2019-01-24T05:20:36.094Z,41.10
2019-01-24T05:22:40.531Z,24.47
2019-01-24T05:24:44.937Z,27.87
2019-01-24T05:26:49.309Z,35.17
2019-01-24T05:28:53.709Z,32.00
2019-01-24T05:30:58.115Z,35.93
2019-01-24T05:33:02.481Z,29.57
2019-01-24T05:35:07.978Z,29.83
2019-01-24T05:37:12.418Z,38.13
2019-01-24T05:39:16.847Z,38.90
2019-01-24T05:41:21.287Z,25.57
2019-01-24T05:43:25.726Z,20.40
2019-01-24T05:45:30.224Z,32.97
2019-01-24T05:47:34.675Z,26.73
2019-01-24T05:49:39.083Z,28.00
2019-01-24T05:51:43.519Z,33.20
2019-01-24T05:53:47.859Z,25.27
2019-01-24T05:55:52.265Z,32.77
2019-01-24T05:57:56.637Z,34.60
2019-01-24T06:00:01.048Z,25.60
2019-01-24T06:02:05.574Z,22.97
2019-01-24T06:04:09.929Z,32.97
2019-01-24T06:06:14.298Z,26.67
2019-01-24T06:08:18.716Z,25.20
2019-01-24T06:10:23.150Z,33.60
2019-01-24T06:12:27.764Z,40.83
2019-01-24T06:14:32.126Z,41.43
2019-01-24T06:16:36.674Z,38.37
2019-01-24T06:18:41.076Z,35.70
2019-01-24T06:20:45.525Z,28.83
2019-01-24T06:22:49.960Z,33.67
2019-01-24T06:24:54.323Z,28.77
2019-01-24T06:26:58.722Z,33.70
2019-01-24T06:29:03.122Z,41.43
2019-01-24T06:31:07.520Z,44.10
2019-01-24T06:33:11.931Z,37.83
2019-01-24T06:35:16.368Z,27.87
2019-01-24T06:37:20.730Z,36.63
2019-01-24T06:39:25.100Z,34.93
2019-01-24T06:41:36.188Z,31.70
2019-01-24T06:43:41.566Z,31.70
2019-01-24T06:45:46.046Z,29.57
2019-01-24T06:47:50.550Z,34.10
2019-01-24T06:49:54.950Z,33.70
2019-01-24T06:51:59.403Z,28.27
2019-01-24T06:54:03.902Z,51.57
2019-01-24T06:56:08.390Z,35.27
2019-01-24T06:58:12.763Z,42.97
2019-01-24T07:00:17.715Z,40.80
2019-01-24T07:02:22.112Z,26.37
2019-01-24T07:04:26.524Z,40.70
2019-01-24T07:06:30.986Z,32.47
2019-01-24T07:08:35.426Z,37.87
2019-01-24T07:10:39.902Z,19.67
2019-01-24T07:12:44.389Z,42.03
2019-01-24T07:14:48.854Z,35.47
2019-01-24T07:16:53.373Z,29.03
2019-01-24T07:18:57.803Z,26.83
2019-01-24T07:21:07.790Z,40.03
2019-01-24T07:23:12.459Z,39.20
2019-01-24T07:25:20.122Z,33.83
2019-01-24T07:27:24.480Z,33.43
2019-01-24T07:29:28.882Z,33.53
2019-01-24T07:31:33.254Z,26.20
2019-01-24T07:33:37.709Z,37.87
2019-01-24T07:35:42.104Z,43.23
2019-01-24T07:37:46.567Z,33.37
2019-01-24T07:39:50.999Z,28.60
2019-01-24T07:41:55.350Z,33.80
2019-01-24T07:43:59.786Z,41.73
2019-01-24T07:46:04.230Z,37.03
2019-01-24T07:48:08.803Z,27.67
2019-01-24T07:50:13.810Z,24.40
2019-01-24T07:52:18.186Z,37.43
2019-01-24T07:54:22.588Z,36.10
2019-01-24T07:56:27.063Z,27.90
2019-01-24T07:58:31.682Z,26.13
2019-01-24T08:00:36.217Z,34.90
2019-01-24T08:02:44.286Z,31.53
2019-01-24T08:04:48.682Z,33.07
2019-01-24T08:06:53.139Z,36.23
2019-01-24T08:08:57.761Z,49.40
2019-01-24T08:11:02.329Z,28.30
2019-01-24T08:13:06.962Z,32.57
2019-01-24T08:15:12.781Z,41.43
2019-01-24T08:17:17.229Z,36.13
2019-01-24T08:19:21.708Z,35.43
2019-01-24T08:21:26.084Z,44.10
2019-01-24T08:23:30.523Z,42.40
2019-01-24T08:25:34.901Z,40.87
2019-01-24T08:27:39.280Z,38.03
2019-01-24T08:29:43.775Z,36.50
2019-01-24T08:31:48.230Z,34.17
2019-01-24T08:33:52.833Z,45.60
2019-01-24T08:35:57.183Z,23.70
2019-01-24T08:38:01.649Z,39.77
2019-01-24T08:40:07.344Z,46.37
2019-01-24T08:42:11.716Z,33.03
2019-01-24T08:44:16.195Z,39.80
2019-01-24T08:46:20.623Z,53.33
2019-01-24T08:48:25.012Z,43.63
2019-01-24T08:50:29.505Z,43.73
2019-01-24T08:52:33.896Z,60.67
2019-01-24T08:54:38.301Z,55.03
2019-01-24T08:56:42.721Z,47.80
2019-01-24T09:01:18.094Z,56.23
2019-01-24T09:03:22.512Z,46.73
2019-01-24T09:05:26.886Z,32.23
2019-01-24T09:07:31.294Z,43.57
2019-01-24T09:09:35.895Z,50.10
2019-01-24T09:11:41.300Z,44.13
2019-01-24T09:13:45.834Z,44.00
2019-01-24T09:15:50.937Z,44.83
2019-01-24T09:17:55.743Z,34.93
2019-01-24T09:20:00.362Z,36.67
2019-01-24T09:22:05.084Z,38.73
2019-01-24T09:24:09.606Z,47.37
2019-01-24T09:26:14.006Z,37.47
2019-01-24T09:28:18.694Z,35.83
2019-01-24T09:30:24.724Z,40.97
2019-01-24T09:32:29.082Z,38.13
2019-01-24T09:34:33.461Z,37.43
2019-01-24T09:36:37.814Z,28.20
2019-01-24T09:38:42.173Z,42.60
2019-01-24T09:40:46.673Z,48.90
2019-01-24T09:42:51.113Z,57.77
2019-01-24T09:44:55.501Z,51.70
2019-01-24T09:47:00.014Z,48.93
2019-01-24T09:49:04.446Z,52.73
2019-01-24T09:51:09.246Z,50.77
2019-01-24T09:53:13.646Z,60.70
2019-01-24T09:55:28.940Z,39.30
2019-01-24T09:57:33.361Z,40.57
2019-01-24T09:59:37.771Z,36.50
2019-01-24T10:01:42.142Z,44.20
2019-01-24T10:03:46.535Z,60.40
2019-01-24T10:05:50.966Z,48.43
2019-01-24T10:07:55.409Z,51.63
2019-01-24T10:09:59.866Z,48.50
2019-01-24T10:12:04.401Z,67.83
2019-01-24T10:14:08.840Z,63.00
2019-01-24T10:16:13.210Z,64.27
2019-01-24T10:18:21.622Z,79.87
2019-01-24T10:20:23.374Z,56.53
2019-01-24T10:22:27.734Z,48.57
2019-01-24T10:24:32.142Z,52.63
2019-01-24T10:26:36.540Z,59.43
2019-01-24T10:28:40.987Z,74.17
2019-01-24T10:30:45.388Z,70.90
2019-01-24T10:32:49.873Z,67.90
2019-01-24T10:34:54.248Z,71.43
2019-01-24T10:36:58.788Z,70.37
2019-01-24T10:39:03.434Z,57.47
2019-01-24T10:41:07.870Z,70.53
2019-01-24T10:43:12.313Z,61.67
2019-01-24T10:45:17.195Z,56.40
2019-01-24T10:47:21.558Z,54.67
2019-01-24T10:49:26.000Z,66.13
2019-01-24T10:51:30.417Z,55.57
2019-01-24T10:53:34.785Z,59.50
2019-01-24T10:55:39.259Z,60.57
2019-01-24T10:57:43.730Z,65.97
2019-01-24T10:59:48.119Z,65.47
2019-01-24T11:01:52.601Z,68.73
2019-01-24T11:03:57.043Z,67.97
2019-01-24T11:06:01.440Z,61.63
2019-01-24T11:08:06.018Z,55.57
2019-01-24T11:10:10.531Z,47.17
2019-01-24T11:12:14.905Z,70.80
2019-01-24T11:14:19.350Z,66.00
2019-01-24T11:16:23.792Z,48.43
2019-01-24T11:18:28.165Z,53.80
2019-01-24T11:20:32.624Z,60.13
2019-01-24T11:22:37.009Z,66.10
2019-01-24T11:24:41.383Z,60.37
2019-01-24T11:26:45.790Z,57.87
2019-01-24T11:28:50.162Z,53.50
2019-01-24T11:30:54.502Z,54.27
2019-01-24T11:32:59.054Z,70.00
2019-01-24T11:35:03.553Z,84.03
2019-01-24T11:37:08.090Z,44.17
2019-01-24T11:39:12.658Z,64.17
2019-01-24T11:41:17.053Z,65.60
2019-01-24T11:43:21.474Z,46.73
2019-01-24T11:45:28.399Z,55.27
2019-01-24T11:47:32.758Z,57.27
2019-01-24T11:49:37.207Z,54.73
2019-01-24T11:51:41.804Z,55.13
2019-01-24T11:53:52.918Z,51.37
2019-01-24T11:55:50.842Z,42.00
2019-01-24T11:57:55.321Z,36.13
2019-01-24T11:59:59.721Z,56.23
2019-01-24T12:02:04.246Z,50.50
2019-01-24T12:04:08.690Z,42.03
2019-01-24T12:06:13.573Z,47.93
2019-01-24T12:08:18.139Z,40.50
2019-01-24T12:10:23.650Z,57.90
2019-01-24T12:12:28.093Z,40.97
2019-01-24T12:14:32.454Z,53.30
2019-01-24T12:16:36.820Z,40.47
2019-01-24T12:18:41.222Z,36.63
2019-01-24T12:20:45.567Z,53.77
2019-01-24T12:22:50.041Z,26.00
2019-01-24T12:24:54.470Z,25.90
2019-01-24T12:26:58.830Z,58.53
2019-01-24T12:29:03.214Z,16.40
2019-01-24T12:31:09.489Z,9.40
2019-01-24T12:33:13.945Z,38.07
2019-01-24T12:35:18.810Z,24.73
2019-01-24T12:37:23.207Z,52.63
2019-01-24T12:39:27.602Z,32.97
2019-01-24T12:41:31.969Z,24.10
2019-01-24T12:43:36.546Z,44.67
2019-01-24T12:45:40.910Z,60.93
2019-01-24T12:47:45.388Z,47.33
2019-01-24T12:49:50.396Z,40.80
2019-01-24T12:51:54.746Z,52.20
2019-01-24T12:54:00.346Z,21.93
2019-01-24T12:56:03.529Z,44.47
2019-01-24T12:58:07.949Z,46.57
2019-01-24T13:00:15.570Z,40.17
2019-01-24T13:02:19.961Z,45.90
2019-01-24T13:04:24.355Z,33.50
2019-01-24T13:06:28.835Z,42.07
2019-01-24T13:08:33.442Z,36.03
2019-01-24T13:10:37.898Z,24.40
2019-01-24T13:12:42.338Z,20.30
2019-01-24T13:14:46.728Z,24.57
2019-01-24T13:16:51.166Z,31.77
2019-01-24T13:18:55.657Z,57.83
2019-01-24T13:21:00.271Z,54.60
2019-01-24T13:23:04.866Z,46.97
2019-01-24T13:25:12.374Z,33.57
2019-01-24T13:27:16.930Z,49.00
2019-01-24T13:29:21.437Z,48.27
2019-01-24T13:31:25.873Z,41.87
2019-01-24T13:33:30.311Z,39.97
2019-01-24T13:35:34.771Z,47.17
2019-01-24T13:37:39.238Z,42.37
2019-01-24T13:39:43.710Z,50.37
2019-01-24T13:41:48.197Z,47.47
2019-01-24T13:43:52.656Z,52.07
2019-01-24T13:45:57.121Z,57.00
2019-01-24T13:48:01.650Z,57.03
2019-01-24T13:50:07.205Z,53.03
2019-01-24T13:52:11.760Z,51.33
2019-01-24T13:54:16.237Z,56.27
2019-01-24T13:56:20.714Z,67.27
2019-01-24T13:58:25.182Z,52.27
2019-01-24T14:00:31.834Z,62.03
2019-01-24T14:02:36.309Z,55.13
2019-01-24T14:04:44.326Z,58.03
2019-01-24T14:06:48.847Z,55.37
2019-01-24T14:08:53.344Z,50.90
2019-01-24T14:10:58.071Z,54.97
2019-01-24T14:13:02.438Z,54.33
2019-01-24T14:15:09.072Z,118.13
2019-01-24T14:17:13.534Z,45.30
2019-01-24T14:19:17.976Z,56.77
2019-01-24T14:21:22.710Z,45.37
2019-01-24T14:23:27.122Z,46.80
2019-01-24T14:25:31.526Z,56.10
2019-01-24T14:27:36.029Z,42.93
2019-01-24T14:29:40.441Z,55.43
2019-01-24T14:31:44.915Z,53.93
2019-01-24T14:33:49.370Z,60.80
2019-01-24T14:35:53.898Z,36.10
2019-01-24T14:37:58.389Z,57.53
2019-01-24T14:40:02.936Z,51.63
2019-01-24T14:42:07.462Z,54.57
2019-01-24T14:44:11.911Z,45.57
2019-01-24T14:46:16.403Z,36.77
2019-01-24T14:48:27.212Z,40.10
2019-01-24T14:50:31.724Z,33.53
2019-01-24T14:52:36.118Z,39.70
2019-01-24T14:54:40.458Z,50.50
2019-01-24T14:56:44.843Z,48.17
2019-01-24T14:58:49.277Z,47.77
2019-01-24T15:00:57.798Z,41.93
2019-01-24T15:03:02.243Z,43.13
2019-01-24T15:05:08.100Z,40.37
2019-01-24T15:07:12.579Z,53.57
2019-01-24T15:09:17.115Z,49.87
2019-01-24T15:11:21.500Z,55.87
2019-01-24T15:13:25.929Z,51.23
2019-01-24T15:15:41.985Z,48.17
2019-01-24T15:17:46.425Z,37.67
2019-01-24T15:19:50.758Z,42.83
2019-01-24T15:21:55.106Z,38.53
2019-01-24T15:23:59.553Z,37.37
2019-01-24T15:26:04.034Z,53.50
2019-01-24T15:28:08.446Z,51.73
2019-01-24T15:30:15.641Z,18.30
2019-01-24T15:32:20.020Z,62.13
2019-01-24T15:34:24.423Z,52.07
2019-01-24T15:36:28.821Z,39.33
2019-01-24T15:38:33.284Z,45.47
2019-01-24T15:40:37.747Z,36.53
2019-01-24T15:42:42.167Z,44.87
2019-01-24T15:44:46.561Z,26.97
2019-01-24T15:46:50.966Z,40.30
2019-01-24T15:48:55.333Z,46.37
2019-01-24T15:50:59.812Z,43.93
2019-01-24T15:53:04.273Z,39.30
2019-01-24T15:55:08.733Z,53.80
2019-01-24T15:57:13.148Z,46.73
2019-01-24T15:59:17.615Z,32.63
2019-01-24T16:01:22.063Z,46.63
2019-01-24T16:03:26.469Z,39.90
2019-01-24T16:05:31.021Z,44.50
2019-01-24T16:07:35.511Z,43.83
2019-01-24T16:09:40.059Z,37.13
2019-01-24T16:11:44.318Z,48.23
2019-01-24T16:13:48.735Z,50.97
2019-01-24T16:15:53.247Z,43.40
2019-01-24T16:17:57.706Z,41.27
2019-01-24T16:20:02.121Z,41.33
2019-01-24T16:22:06.616Z,44.10
2019-01-24T16:24:11.034Z,45.67
2019-01-24T16:26:15.468Z,43.63
2019-01-24T16:28:24.685Z,41.10
2019-01-24T16:30:28.065Z,45.90
2019-01-24T16:32:32.548Z,43.90
2019-01-24T16:34:36.947Z,41.43
2019-01-24T16:36:41.366Z,49.47
2019-01-24T16:38:45.712Z,53.47
2019-01-24T16:40:50.211Z,47.50
2019-01-24T16:42:54.635Z,49.77
2019-01-24T16:44:59.069Z,48.23
2019-01-24T16:47:03.531Z,46.73
2019-01-24T16:49:07.986Z,45.27
2019-01-24T16:51:12.394Z,48.90
2019-01-24T16:53:16.789Z,41.97
2019-01-24T16:55:21.255Z,28.73
2019-01-24T16:57:25.690Z,60.57
2019-01-24T16:59:30.109Z,36.27
2019-01-24T17:01:34.535Z,41.87
2019-01-24T17:03:38.976Z,56.27
2019-01-24T17:05:43.453Z,56.13
2019-01-24T17:07:47.910Z,34.10
2019-01-24T17:09:52.353Z,42.80
2019-01-24T17:11:56.779Z,41.27
2019-01-24T17:14:01.294Z,42.40
2019-01-24T17:16:05.859Z,48.10
2019-01-24T17:18:10.346Z,54.57
2019-01-24T17:20:18.285Z,68.30
2019-01-24T17:22:22.765Z,50.33
2019-01-24T17:24:27.362Z,53.50
2019-01-24T17:26:31.966Z,51.77
2019-01-24T17:28:36.387Z,50.50
2019-01-24T17:30:40.926Z,43.97
2019-01-24T17:32:45.515Z,42.90
2019-01-24T17:34:49.991Z,44.40
2019-01-24T17:36:54.494Z,46.60
2019-01-24T17:38:58.998Z,41.57
2019-01-24T17:41:03.642Z,46.93
2019-01-24T17:43:08.148Z,42.67
2019-01-24T17:45:13.502Z,43.37
2019-01-24T17:47:18.059Z,53.87
2019-01-24T17:49:22.574Z,63.53
2019-01-24T17:51:26.996Z,32.30
2019-01-24T17:53:31.477Z,42.00
2019-01-24T17:55:38.202Z,53.17
2019-01-24T17:57:43.898Z,41.97
2019-01-24T17:59:48.440Z,53.80
2019-01-24T18:01:52.959Z,50.37
2019-01-24T18:03:57.385Z,40.70
2019-01-24T18:06:01.881Z,47.20
2019-01-24T18:08:06.428Z,46.73
2019-01-24T18:10:15.374Z,69.57
2019-01-24T18:12:19.832Z,52.20
2019-01-24T18:14:24.324Z,57.27
2019-01-24T18:16:28.774Z,61.10
2019-01-24T18:18:33.412Z,55.30
2019-01-24T18:20:37.992Z,44.53
2019-01-24T18:22:42.507Z,65.67
2019-01-24T18:24:48.011Z,50.93
2019-01-24T18:26:52.503Z,49.50
2019-01-24T18:28:56.982Z,57.63
2019-01-24T18:31:01.563Z,56.47
2019-01-24T18:33:06.085Z,64.23
2019-01-24T18:35:10.597Z,56.17
2019-01-24T18:37:15.057Z,65.23
2019-01-24T18:39:19.660Z,47.80
2019-01-24T18:41:24.070Z,62.40
2019-01-24T18:43:28.977Z,49.37
2019-01-24T18:45:37.205Z,62.47
2019-01-24T18:47:41.913Z,53.63
2019-01-24T18:49:46.455Z,56.87
2019-01-24T18:51:51.192Z,65.53
2019-01-24T18:53:55.639Z,59.67
2019-01-24T18:56:00.048Z,45.20
2019-01-24T18:58:04.718Z,41.80
2019-01-24T19:00:12.496Z,38.63
2019-01-24T19:02:17.084Z,46.70
2019-01-24T19:04:21.491Z,57.60
2019-01-24T19:06:26.055Z,50.33
2019-01-24T19:08:30.567Z,46.90
2019-01-24T19:10:35.109Z,55.73
2019-01-24T19:12:39.658Z,42.97
2019-01-24T19:14:44.127Z,43.03
2019-01-24T19:16:48.589Z,49.43
2019-01-24T19:18:54.657Z,41.63
2019-01-24T19:21:00.140Z,59.13
2019-01-24T19:23:04.714Z,44.53
2019-01-24T19:25:10.244Z,45.30
2019-01-24T19:27:14.842Z,55.30
2019-01-24T19:29:19.342Z,50.10
2019-01-24T19:31:23.822Z,61.33
2019-01-24T19:33:28.310Z,54.13
2019-01-24T19:35:32.746Z,56.67
2019-01-24T19:37:37.248Z,60.97
2019-01-24T19:39:41.707Z,49.07
2019-01-24T19:41:46.160Z,47.73
2019-01-24T19:43:50.543Z,38.27
2019-01-24T19:45:55.239Z,66.50
2019-01-24T19:47:59.731Z,55.73
2019-01-24T19:50:04.503Z,51.80
2019-01-24T19:52:08.968Z,43.53
2019-01-24T19:54:13.393Z,46.17
2019-01-24T19:56:17.834Z,49.13
2019-01-24T19:58:22.327Z,52.13
2019-01-24T20:00:28.660Z,31.60
2019-01-24T20:02:33.282Z,47.17
2019-01-24T20:04:37.761Z,47.23
2019-01-24T20:06:42.739Z,48.30
2019-01-24T20:08:47.300Z,40.37
2019-01-24T20:10:51.816Z,63.40
2019-01-24T20:12:56.558Z,32.20
2019-01-24T20:15:01.060Z,55.20
2019-01-24T20:17:05.616Z,54.13
2019-01-24T20:19:10.099Z,47.10
2019-01-24T20:21:14.622Z,40.90
2019-01-24T20:23:19.082Z,50.27
2019-01-24T20:25:28.005Z,45.80
2019-01-24T20:27:32.513Z,40.57
2019-01-24T20:29:36.946Z,35.90
2019-01-24T20:31:41.387Z,61.00
2019-01-24T20:33:45.861Z,49.37
2019-01-24T20:35:52.988Z,42.20
2019-01-24T20:37:57.653Z,41.70
2019-01-24T20:40:02.111Z,39.03
2019-01-24T20:42:06.655Z,48.83
2019-01-24T20:44:11.110Z,60.17
2019-01-24T20:46:15.647Z,56.13
2019-01-24T20:48:20.072Z,58.33
2019-01-24T20:50:24.528Z,37.73
2019-01-24T20:52:29.018Z,69.00
2019-01-24T20:54:33.469Z,59.03
2019-01-24T20:56:37.961Z,58.10
2019-01-24T20:58:42.532Z,68.83
2019-01-24T21:00:47.233Z,52.00
2019-01-24T21:02:51.891Z,55.73
2019-01-24T21:04:56.271Z,44.60
2019-01-24T21:07:01.228Z,42.20
2019-01-24T21:09:14.685Z,50.83
2019-01-24T21:11:13.057Z,46.60
2019-01-24T21:13:17.530Z,45.83
2019-01-24T21:15:22.024Z,49.93
2019-01-24T21:17:26.522Z,42.27
2019-01-24T21:19:30.973Z,50.77
2019-01-24T21:21:35.391Z,48.67
2019-01-24T21:23:39.886Z,38.57
2019-01-24T21:25:44.365Z,45.50
2019-01-24T21:27:48.902Z,41.57
2019-01-24T21:29:53.431Z,34.83
2019-01-24T21:31:57.883Z,22.07
2019-01-24T21:34:02.791Z,35.10
2019-01-24T21:36:07.219Z,33.17
2019-01-24T21:38:11.658Z,39.90
2019-01-24T21:40:17.389Z,46.67
2019-01-24T21:42:21.845Z,43.27
2019-01-24T21:44:26.301Z,50.57
2019-01-24T21:46:30.757Z,37.23
2019-01-24T21:48:35.200Z,52.13
2019-01-24T21:50:39.647Z,43.20
2019-01-24T21:52:44.098Z,46.07
2019-01-24T21:54:48.544Z,50.63
2019-01-24T21:56:53.012Z,56.60
2019-01-24T21:58:57.499Z,38.27
2019-01-24T22:01:01.937Z,43.63
2019-01-24T22:03:07.026Z,47.40
2019-01-24T22:05:11.730Z,39.03
2019-01-24T22:07:16.167Z,41.23
2019-01-24T22:09:20.634Z,49.87
2019-01-24T22:11:25.094Z,35.97
2019-01-24T22:13:30.583Z,46.00
2019-01-24T22:15:35.779Z,52.10
2019-01-24T22:17:40.150Z,43.53
2019-01-24T22:19:44.509Z,46.97
2019-01-24T22:21:48.947Z,53.13
2019-01-24T22:23:53.383Z,49.53
2019-01-24T22:25:57.821Z,57.13
2019-01-24T22:28:02.409Z,38.00
2019-01-24T22:30:09.950Z,35.80
2019-01-24T22:32:14.419Z,45.40
2019-01-24T22:34:18.832Z,36.17
2019-01-24T22:36:23.237Z,36.03
2019-01-24T22:38:27.594Z,38.90
2019-01-24T22:40:32.063Z,32.40
2019-01-24T22:42:36.575Z,53.57
2019-01-24T22:44:41.049Z,51.83
2019-01-24T22:46:45.461Z,39.93
2019-01-24T22:48:49.898Z,48.03
2019-01-24T22:50:54.354Z,42.20
2019-01-24T22:52:58.886Z,33.70
2019-01-24T22:55:03.340Z,36.70
2019-01-24T22:57:07.775Z,25.53
2019-01-24T22:59:12.182Z,39.20
2019-01-24T23:01:31.264Z,43.10
2019-01-24T23:03:45.762Z,37.73
2019-01-24T23:05:50.266Z,37.37
2019-01-24T23:07:54.702Z,37.23
2019-01-24T23:10:04.735Z,44.13
2019-01-24T23:12:09.382Z,41.70
2019-01-24T23:14:13.773Z,45.97
2019-01-24T23:16:18.316Z,28.57
2019-01-24T23:18:22.729Z,11.43
2019-01-24T23:20:27.124Z,26.40
2019-01-24T23:22:31.538Z,36.83
2019-01-24T23:24:35.934Z,27.37
2019-01-24T23:26:40.328Z,28.40
2019-01-24T23:28:44.693Z,32.77
2019-01-24T23:30:49.108Z,31.30
2019-01-24T23:32:53.453Z,15.67
2019-01-24T23:34:57.924Z,22.53
2019-01-24T23:37:02.373Z,25.37
2019-01-24T23:39:09.334Z,5.73
2019-01-24T23:41:14.589Z,34.77
2019-01-24T23:43:19.010Z,31.50
2019-01-24T23:45:23.444Z,34.80
2019-01-24T23:47:27.905Z,60.07
2019-01-24T23:49:32.601Z,47.70
2019-01-24T23:51:37.034Z,26.17
2019-01-24T23:53:41.527Z,34.63
2019-01-24T23:55:45.922Z,23.80
2019-01-24T23:57:50.335Z,32.63
2019-01-24T23:59:54.763Z,47.13
